Time;durP1;ratioP1;P1;durP2;ratioP2;P2;SDS_P1;SDS_P2;PMS_P1;PMS_P2;Temp;Humidity;BMP_temperature;BMP_pressure;BME280_temperature;BME280_humidity;BME280_pressure;Samples;Min_cycle;Max_cycle;Signal;HPM_P1;HPM_P2
2021/03/10 14:38:38;;;;;;;;;;;8.70;99.90;;;;;;5093578;23;19929;-89
2021/03/10 14:41:04;;;;;;;;;;;8.70;99.90;;;;;;5019416;28;20297;-88
2021/03/10 14:43:30;;;;;;;;;;;8.60;99.90;;;;;;5019261;28;20414;-88
2021/03/10 15:22:23;;;;;;;;;;;8.00;99.90;;;;;;5076914;23;19925;-87
2021/03/10 15:24:49;;;;;;;;;;;8.80;99.90;;;;;;5020307;28;19926;-88
2021/03/10 15:33:31;;;;;;;;;;;8.80;99.90;;;;;;5050147;23;20380;-89
2021/03/10 15:35:57;;;;;;;;;;;8.80;99.90;;;;;;5017937;28;20005;-86
2021/03/10 15:38:25;;;;;;;;;;;8.80;99.90;;;;;;5016112;28;20342;-88
2021/03/10 15:40:52;;;;;;;;;;;8.80;99.90;;;;;;5015920;28;19925;-87
2021/03/10 15:43:18;;;;;;;;;;;8.90;99.90;;;;;;5016166;28;19926;-87
2021/03/10 15:48:48;;;;;;;;;;;8.90;99.90;;;;;;5021333;28;20265;-88
2021/03/10 15:51:14;;;;;;;;;;;8.90;99.90;;;;;;5016061;28;20012;-89
2021/03/10 15:53:41;;;;;;;;;;;8.90;99.90;;;;;;5015313;28;19929;-88
2021/03/10 15:56:08;;;;;;;;;;;8.90;99.90;;;;;;5015927;28;20025;-88
2021/03/10 15:58:34;;;;;;;;;;;8.90;99.90;;;;;;5015108;28;19951;-89
2021/03/10 16:01:01;;;;;;;;;;;8.90;99.90;;;;;;5015471;28;19936;-90
2021/03/10 16:03:27;;;;;;;;;;;8.90;99.90;;;;;;5015383;28;19936;-90
2021/03/10 16:05:54;;;;;;;;;;;9.20;99.90;;;;;;5015193;28;19925;-90
2021/03/10 16:08:20;;;;;;;;;;;8.90;99.90;;;;;;5015417;28;20285;-92
2021/03/10 16:10:47;;;;;;;;;;;8.90;99.90;;;;;;5018676;28;19944;-91
2021/03/10 16:13:14;;;;;;;;;;;8.90;99.90;;;;;;5018656;28;19925;-91
2021/03/10 16:15:40;;;;;;;;;;;8.90;99.90;;;;;;5018794;28;19929;-93
2021/03/10 16:20:47;;;;;;;;;;;7.30;99.90;;;;;;5020845;28;19922;-93
2021/03/10 16:23:14;;;;;;;;;;;9.00;99.90;;;;;;5018482;28;19931;-94
2021/03/10 16:25:40;;;;;;;;;;;9.00;99.90;;;;;;5018701;28;19936;-92
2021/03/10 16:28:08;;;;;;;;;;;9.10;99.90;;;;;;5018873;28;20361;-93
2021/03/10 16:30:34;;;;;;;;;;;9.10;99.90;;;;;;5018744;28;20308;-93
2021/03/10 16:33:01;;;;;;;;;;;9.10;99.90;;;;;;5018308;28;19929;-94
2021/03/10 16:35:27;;;;;;;;;;;9.20;99.90;;;;;;5018685;28;19925;-94
2021/03/10 16:37:54;;;;;;;;;;;9.10;99.90;;;;;;5018569;28;19925;-92
2021/03/10 16:40:20;;;;;;;;;;;9.10;99.90;;;;;;5018584;28;19943;-94
2021/03/10 16:42:47;;;;;;;;;;;9.10;99.90;;;;;;5018703;28;19929;-94
2021/03/10 16:45:16;;;;;;;;;;;9.10;99.90;;;;;;5018631;28;20029;-94
2021/03/10 16:47:42;;;;;;;;;;;9.10;99.90;;;;;;5018530;28;19971;-94
2021/03/10 16:50:09;;;;;;;;;;;9.20;99.90;;;;;;5018602;28;19925;-94
2021/03/10 16:52:35;;;;;;;;;;;9.20;99.90;;;;;;5018458;28;19925;-94
2021/03/10 16:55:02;;;;;;;;;;;9.20;99.90;;;;;;5018281;28;19938;-94
2021/03/10 16:57:29;;;;;;;;;;;9.20;99.90;;;;;;5018284;28;20365;-96
2021/03/10 16:59:55;;;;;;;;;;;9.20;99.90;;;;;;5018122;28;20361;-94
2021/03/10 17:02:23;;;;;;;;;;;9.30;99.90;;;;;;5018247;28;19929;-94
2021/03/10 17:04:49;;;;;;;;;;;9.30;99.90;;;;;;5018206;28;19927;-94
2021/03/10 17:07:15;;;;;;;;;;;9.20;99.90;;;;;;5018150;28;19932;-95
2021/03/10 17:09:42;;;;;;;;;;;9.20;99.90;;;;;;5018353;28;19935;-95
2021/03/10 17:12:08;;;;;;;;;;;9.20;99.90;;;;;;5018124;28;20250;-94
2021/03/10 17:14:35;;;;;;;;;;;9.20;99.90;;;;;;5018011;28;19925;-95
2021/03/10 17:17:01;;;;;;;;;;;9.30;99.90;;;;;;5017936;28;19926;-95
2021/03/10 17:19:29;;;;;;;;;;;9.30;99.90;;;;;;5017697;28;19925;-95
2021/03/10 17:21:55;;;;;;;;;;;9.30;99.90;;;;;;5017011;28;20013;-95
2021/03/10 17:24:22;;;;;;;;;;;9.30;99.90;;;;;;5017982;28;19926;-95
2021/03/10 17:26:48;;;;;;;;;;;9.20;99.90;;;;;;5017987;28;19935;-94
2021/03/10 17:29:14;;;;;;;;;;;9.20;99.90;;;;;;5017808;28;20311;-94
2021/03/10 17:31:41;;;;;;;;;;;9.30;99.90;;;;;;5017612;28;19943;-95
2021/03/10 17:34:07;;;;;;;;;;;9.30;99.90;;;;;;5017707;28;19952;-95
2021/03/10 17:36:35;;;;;;;;;;;9.30;99.90;;;;;;5017641;28;19929;-95
2021/03/10 17:39:01;;;;;;;;;;;9.30;99.90;;;;;;5017238;28;19979;-96
2021/03/10 17:41:28;;;;;;;;;;;9.30;99.90;;;;;;5017615;28;19925;-95
2021/03/10 17:43:54;;;;;;;;;;;9.30;99.90;;;;;;5017431;28;19935;-94
2021/03/10 17:46:20;;;;;;;;;;;9.30;99.90;;;;;;5017484;28;19933;-95
2021/03/10 17:48:47;;;;;;;;;;;9.30;99.90;;;;;;5017583;28;19948;-94
2021/03/10 17:51:13;;;;;;;;;;;9.30;99.90;;;;;;5017418;28;20385;-95
2021/03/10 17:53:41;;;;;;;;;;;9.40;99.90;;;;;;5017359;28;19926;-95
2021/03/10 17:56:07;;;;;;;;;;;9.40;99.90;;;;;;5017272;28;20319;-95
2021/03/10 17:58:34;;;;;;;;;;;9.40;99.90;;;;;;5017230;28;19945;-95
2021/03/10 18:01:00;;;;;;;;;;;9.40;99.90;;;;;;5017597;28;19941;-95
2021/03/10 18:03:27;;;;;;;;;;;9.40;99.90;;;;;;5024193;28;20011;-95
2021/03/10 18:05:53;;;;;;;;;;;9.40;99.90;;;;;;5019921;28;19925;-94
2021/03/10 18:08:19;;;;;;;;;;;9.30;99.90;;;;;;5017198;28;20350;-92
2021/03/10 18:10:47;;;;;;;;;;;9.30;99.90;;;;;;5017229;28;19925;-94
2021/03/10 18:13:22;;;;;;;;;;;9.40;99.90;;;;;;5017118;28;19935;-94
2021/03/10 18:15:51;;;;;;;;;;;9.40;99.90;;;;;;5017010;28;20024;-94
2021/03/10 18:18:30;;;;;;;;;;;9.40;99.90;;;;;;5016800;28;19991;-95
2021/03/10 18:21:00;;;;;;;;;;;9.40;99.90;;;;;;5016835;28;20048;-94
2021/03/10 18:23:28;;;;;;;;;;;9.40;99.90;;;;;;5017052;28;20342;-94
2021/03/10 18:25:56;;;;;;;;;;;9.40;99.90;;;;;;5016902;28;20028;-94
2021/03/10 18:28:27;;;;;;;;;;;9.40;99.90;;;;;;5016863;28;19925;-95
2021/03/10 18:30:55;;;;;;;;;;;9.40;99.90;;;;;;5016632;28;19963;-94
2021/03/10 18:33:24;;;;;;;;;;;9.40;99.90;;;;;;5015627;28;20321;-94
2021/03/10 18:35:58;;;;;;;;;;;9.40;99.90;;;;;;5016184;28;19930;-93
2021/03/10 18:38:30;;;;;;;;;;;9.40;99.90;;;;;;5016434;28;19925;-94
2021/03/10 18:41:02;;;;;;;;;;;9.50;99.90;;;;;;5016687;28;19929;-93
2021/03/10 18:43:33;;;;;;;;;;;9.40;99.90;;;;;;5017156;28;19926;-93
2021/03/10 18:45:59;;;;;;;;;;;9.40;99.90;;;;;;5016729;28;19926;-95
2021/03/10 18:48:26;;;;;;;;;;;9.40;99.90;;;;;;5016451;28;20036;-93
2021/03/10 18:50:52;;;;;;;;;;;9.40;99.90;;;;;;5016323;28;19926;-93
2021/03/10 18:53:19;;;;;;;;;;;9.40;99.90;;;;;;5015757;28;19925;-92
2021/03/10 18:55:46;;;;;;;;;;;9.40;99.90;;;;;;5016005;28;20012;-93
2021/03/10 18:58:14;;;;;;;;;;;9.40;99.90;;;;;;5015975;28;19925;-93
2021/03/10 19:00:41;;;;;;;;;;;9.50;99.90;;;;;;5015583;28;20016;-93
2021/03/10 19:03:09;;;;;;;;;;;9.40;99.90;;;;;;5015964;28;19925;-92
2021/03/10 19:05:36;;;;;;;;;;;9.40;99.90;;;;;;5016094;28;20347;-93
2021/03/10 19:08:02;;;;;;;;;;;9.40;99.90;;;;;;5015954;28;19933;-92
2021/03/10 19:10:30;;;;;;;;;;;9.40;99.90;;;;;;5015772;28;19935;-93
2021/03/10 19:12:58;;;;;;;;;;;9.50;99.90;;;;;;5016361;28;19926;-93
2021/03/10 19:15:31;;;;;;;;;;;9.50;99.90;;;;;;5015779;28;19980;-93
2021/03/10 19:17:57;;;;;;;;;;;9.40;99.90;;;;;;5015795;28;19926;-92
2021/03/10 19:20:25;;;;;;;;;;;9.40;99.90;;;;;;5015811;28;19984;-92
2021/03/10 19:22:52;;;;;;;;;;;9.40;99.90;;;;;;5015730;28;20289;-92
2021/03/10 19:25:23;;;;;;;;;;;9.40;99.90;;;;;;5015199;28;19988;-93
2021/03/10 19:27:51;;;;;;;14.02;3.13;;;9.40;99.90;;;;;;5015330;28;20497;-93
2021/03/10 19:30:21;;;;;;;11.80;2.58;;;9.40;99.90;;;;;;5015073;28;20054;-94
2021/03/10 19:32:49;;;;;;;;;;;9.40;99.90;;;;;;5015074;28;20390;-93
2021/03/10 19:35:17;;;;;;;;;;;9.40;99.90;;;;;;5015577;28;20008;-94
2021/03/10 19:37:44;;;;;;;;;;;9.40;99.90;;;;;;5015969;28;19925;-95
2021/03/10 19:40:11;;;;;;;;;;;9.40;99.90;;;;;;5015727;28;20415;-93
2021/03/10 19:42:40;;;;;;;;;;;9.40;99.90;;;;;;5015629;28;19921;-95
2021/03/10 19:45:07;;;;;;;;;;;9.40;99.90;;;;;;5018682;28;19921;-94
2021/03/10 19:47:34;;;;;;;;;;;9.40;99.90;;;;;;5019917;28;20264;-94
2021/03/10 19:50:01;;;;;;;;;;;9.40;99.90;;;;;;5019462;28;19925;-95
2021/03/10 19:52:28;;;;;;;;;;;9.40;99.90;;;;;;5019703;28;19922;-94
2021/03/10 19:54:55;;;;;;;;;;;9.50;99.90;;;;;;5019405;28;19929;-94
2021/03/10 19:57:21;;;;;;;;;;;9.50;99.90;;;;;;5019740;28;19929;-94
2021/03/10 19:59:48;;;;;;;;;;;9.50;99.90;;;;;;5019328;28;20000;-94
2021/03/10 20:02:14;;;;;;;;;;;9.40;99.90;;;;;;5019805;28;19921;-96
2021/03/10 20:04:41;;;;;;;;;;;9.40;99.90;;;;;;5019193;28;20020;-90
2021/03/10 20:07:09;;;;;;;;;;;9.40;99.90;;;;;;5015948;28;19929;-87
2021/03/10 20:09:35;;;;;;;;;;;9.40;99.90;;;;;;5013995;28;19928;-96
2021/03/10 20:12:02;;;;;;;;;;;9.40;99.90;;;;;;5017820;28;20321;-93
2021/03/10 20:14:28;;;;;;;;;;;9.40;99.90;;;;;;5018980;28;20020;-92
2021/03/10 20:16:55;;;;;;;;;;;9.40;99.90;;;;;;5018767;28;19921;-92
2021/03/10 20:19:21;;;;;;;;;;;9.40;99.90;;;;;;5018343;28;19922;-92
2021/03/10 20:21:48;;;;;;;;;;;9.40;99.90;;;;;;5018694;28;20016;-92
2021/03/10 20:24:19;;;;;;;;;;;9.40;99.90;;;;;;5019032;28;19932;-93
2021/03/10 20:26:47;;;;;;;;;;;9.40;99.90;;;;;;5019172;28;19921;-92
2021/03/10 20:29:13;;;;;;;;;;;9.40;99.90;;;;;;5018850;28;19975;-90
2021/03/10 20:31:40;;;;;;;;;;;9.40;99.90;;;;;;5018321;28;19972;-91
2021/03/10 20:34:07;;;;;;;;;;;9.40;99.90;;;;;;5017845;28;20020;-92
2021/03/10 20:36:33;;;;;;;;;;;9.40;99.90;;;;;;5017632;28;19921;-91
2021/03/10 20:39:00;;;;;;;;;;;9.30;99.90;;;;;;5017594;28;19932;-91
2021/03/10 20:41:28;;;;;;;;;;;9.40;99.90;;;;;;5017846;28;19922;-92
2021/03/10 20:43:55;;;;;;;;;;;9.40;99.90;;;;;;5018013;28;19921;-91
2021/03/10 20:46:23;;;;;;;;;;;9.40;99.90;;;;;;5017955;28;20330;-91
2021/03/10 20:48:51;;;;;;;;;;;9.40;99.90;;;;;;5017700;28;20687;-91
2021/03/10 20:51:24;;;;;;;;;;;9.40;99.90;;;;;;5017089;28;19921;-91
2021/03/10 20:53:51;;;;;;;;;;;9.30;99.90;;;;;;5017845;28;19929;-91
2021/03/10 20:56:18;;;;;;;;;;;9.30;99.90;;;;;;5014219;28;20424;-92
2021/03/10 20:58:45;;;;;;;;;;;9.30;99.90;;;;;;5017770;28;19979;-91
2021/03/10 21:01:14;;;;;;;;;;;9.40;99.90;;;;;;5017625;28;19936;-92
2021/03/10 21:03:41;;;;;;;;;;;9.30;99.90;;;;;;5017378;28;19921;-91
2021/03/10 21:06:19;;;;;;;;;;;9.40;99.90;;;;;;5017634;28;20405;-91
2021/03/10 21:08:46;;;;;;;;;;;9.30;99.90;;;;;;5013267;28;20346;-91
2021/03/10 21:11:13;;;;;;;;;;;9.40;99.90;;;;;;5017351;28;19932;-91
2021/03/10 21:13:39;;;;;;;;;;;9.40;99.90;;;;;;5017725;28;20372;-91
2021/03/10 21:16:10;;;;;;;;;;;9.40;99.90;;;;;;5017720;28;20023;-93
2021/03/10 21:18:38;;;;;;;;;;;9.40;99.90;;;;;;5017669;28;19976;-92
2021/03/10 21:21:04;;;;;;;;;;;9.40;99.90;;;;;;5017955;28;20012;-94
2021/03/10 21:23:31;;;;;;;;;;;9.50;99.90;;;;;;5017839;28;20324;-93
2021/03/10 21:25:57;;;;;;;;;;;9.50;99.90;;;;;;5017803;28;19925;-93
2021/03/10 21:28:24;;;;;;;;;;;9.50;99.90;;;;;;5017839;28;19983;-92
2021/03/10 21:30:50;;;;;;;;;;;9.50;99.90;;;;;;5017641;28;19925;-93
2021/03/10 21:33:18;;;;;;;;;;;9.50;99.90;;;;;;5017277;28;20017;-93
2021/03/10 21:35:44;;;;;;;;;;;9.50;99.90;;;;;;5017839;28;19921;-94
2021/03/10 21:38:11;;;;;;;;;;;9.50;99.90;;;;;;5016554;28;19929;-93
2021/03/10 21:40:38;;;;;;;;;;;9.50;99.90;;;;;;5017488;28;20297;-93
2021/03/10 21:43:08;;;;;;;;;;;9.50;99.90;;;;;;5016647;28;20336;-89
2021/03/10 21:45:35;;;;;;;;;;;9.50;99.90;;;;;;5016471;28;19980;-88
2021/03/10 21:48:02;;;;;;;;;;;9.50;99.90;;;;;;5014005;28;19933;-90
2021/03/10 21:50:41;;;;;;;;;;;9.50;99.90;;;;;;5016977;28;19983;-89
2021/03/10 21:53:08;;;;;;;;;;;9.50;99.90;;;;;;5015871;28;19987;-91
2021/03/10 21:55:34;;;;;;;;;;;9.50;99.90;;;;;;5015821;28;20000;-91
2021/03/10 21:58:04;;;;;;;;;;;9.50;99.90;;;;;;5015948;28;20035;-89
2021/03/10 22:00:31;;;;;;;;;;;9.40;99.90;;;;;;5015720;28;19932;-94
2021/03/10 22:02:57;;;;;;;;;;;9.40;99.90;;;;;;5016921;28;20080;-94
2021/03/10 22:05:24;;;;;;;;;;;9.50;99.90;;;;;;5017045;28;19922;-89
2021/03/10 22:07:51;;;;;;;;;;;9.50;99.90;;;;;;5016168;28;19929;-89
2021/03/10 22:10:17;;;;;;;;;;;9.50;99.90;;;;;;5016714;28;19925;-89
2021/03/10 22:12:44;;;;;;;;;;;9.60;99.90;;;;;;5016737;28;19921;-87
2021/03/10 22:15:11;;;;;;;;;;;9.60;99.90;;;;;;5016547;28;19925;-92
2021/03/10 22:17:37;;;;;;;;;;;9.60;99.90;;;;;;5017119;28;20262;-93
2021/03/10 22:20:04;;;;;;;;;;;8.80;99.90;;;;;;5016666;28;19921;-90
2021/03/10 22:22:30;;;;;;;;;;;9.50;99.90;;;;;;5016452;28;19925;-89
2021/03/10 22:24:58;;;;;;;;;;;9.50;99.90;;;;;;5015935;28;19932;-89
